Tiempo atmosférico en la estación meteorológica de Abenójar, Ciudad Real (718 m.)



Fecha
DESCASC
Temp. máxima en grados centígrados (hora)
DESCASC
Temp. mínima en grados centígrados (hora)
DESCASC
Temp. media en grados centígrados
DESCASC
Racha de viento máxima en m/sg (hora)
DESCASC
Velocidad máxima media en intervalos de 10 minutos(hora)
DESCASC
Precipitaciones diarias en mm
DESCASC
Precipitaciones de 00:00 a 06:00 en mm
DESCASC
Precipitaciones de 06:00 a 12:00 en mm
DESCASC
Precipitaciones de 12:00 a 18:00 en mm
DESCASC
Precipitaciones de 18:00 a 24:00 en mm
DESCASC
28-02-2021 16.1 (16:10) 3.3 (07:10) 9.7 9.44 (03:50) 6.39 (08:00) 0 0 0 0 0
27-02-2021 16.6 (16:10) 3.5 (08:10) 10.1 10.83 (10:20) 7.78 (03:50) 0 0 0 0 0
26-02-2021 18.4 (17:00) 5.8 (08:00) 12.1 10.56 (09:00) 7.22 (10:10) 0 0 0 0 0
25-02-2021 15.1 (15:00) 4.5 (00:00) 9.8 8.06 (06:30) 5.83 (06:40) 0 0 0 0 0
24-02-2021 18.3 (16:50) 3.9 (00:00) 11.1 8.61 (08:50) 6.11 (07:50) 0 0 0 0 0
23-02-2021 15.6 (16:50) 0.6 (00:00) 8.1 8.61 (16:50) 5.28 (12:10) 0 0 0 0 0
22-02-2021 11.6 (17:00) 1.7 (00:00) 6.7 9.17 (09:30) 6.39 (09:20) 0 0 0 0 0
21-02-2021 12.8 (00:00) 5.5 (00:00) 9.2 10.28 (20:10) 5.83 (20:30) 7.8 0 0 6.6 1.2
20-02-2021 19.6 (13:20) 6.7 (00:00) 13.2 13.06 (15:00) 7.78 (14:50) 0 0 0 0 0
19-02-2021 20.1 (14:10) 4 (00:00) 12.1 9.72 (16:10) 5.56 (16:00) 0 0 0 0 0
18-02-2021 17.7 (16:20) 3.5 (00:00) 10.6 6.94 (15:30) 3.89 (13:50) 0 0 0 0 0
17-02-2021 20.3 (16:00) 5.1 (00:00) 12.7 6.11 (16:10) 3.89 (16:30) 0 0 0 0 0
16-02-2021 18.8 (16:00) 3.6 (00:00) 11.2 7.22 (06:10) 6.11 (06:10) 0 0 0 0 0
15-02-2021 17.3 (16:10) 4 (00:00) 10.6 7.78 (09:20) 5.56 (09:10) 0 0 0 0 0
14-02-2021 17.3 (16:30) 4.4 (00:00) 10.8 7.78 (14:40) 5.28 (07:50) 0 0 0 0 0
13-02-2021 16.2 (16:00) 2.5 (00:00) 9.4 6.11 (14:20) 3.61 (13:40) 0 0 0 0 0
12-02-2021 13.6 (15:50) 4.9 (00:00) 9.3 12.5 (10:00) 6.94 (10:50) 1.6 0 1.6 0 0
11-02-2021 14.3 (14:30) 8.7 (00:00) 11.5 5.56 (00:10) 3.33 (00:10) 0.4 0.2 0.2 0 0
10-02-2021 13.4 (16:10) 7.2 (00:00) 10.3 17.22 (02:40) 10.28 (04:30) 3.4 0.2 3.2 0 0
09-02-2021 9.6 (13:10) 6.5 (00:00) 8.1 14.72 (13:20) 8.33 (16:00) 8.4 0 0.2 6 2.2
08-02-2021 9.9 (14:10) 5.8 (00:00) 7.8 16.67 (06:10) 9.17 (13:50) 5.8 2.6 2.6 0.6 0
07-02-2021 9.8 (15:00) 5.6 (00:00) 7.7 12.22 (14:50) 7.78 (15:10) 0.2 0 0 0 0.2
06-02-2021 9 (13:00) 6.6 (00:00) 7.8 8.06 (02:20) 4.72 (09:10) 1.8 0.8 0.4 0.4 0.2
05-02-2021 17 (14:20) 5.8 (00:00) 11.4 10.56 (00:20) 7.22 (04:40) 5 0 0 0 5
04-02-2021 15 (15:00) 8 (00:00) 11.5 11.11 (23:59) 7.22 (23:50) 0 0 0 0 0
03-02-2021 14.7 (13:10) 7.4 (00:00) 11 5.56 (11:30) 3.33 (13:20) 0 0 0 0 0
02-02-2021 11.6 (13:00) 6.5 (00:00) 9.1 6.11 (14:30) 3.89 (14:30) 0 0 0 0 0
01-02-2021 11.2 (16:10) 6.6 (00:00) 8.9 12.5 (16:30) 7.78 (16:30) 0 0 0 0 0
31-01-2021 11.3 (22:30) 6.7 (00:00) 9 14.17 (01:30) 8.61 (02:50) 2.8 0 0 0 2.8

Gráficas

Temp. máximas Temp. mínimas Temp. medias Precipitaciones Rachas de viento máximas Velocidades máximas media en intervalos de 10 minutos

Datos horarios

Fecha y hora oficial Temperatura (ºC) Velocidad del viento (km/h) Dirección del viento Racha (km/h) Dirección de racha Precipitación (mm) Presión (hPa) Tendencia (hPa) Humedad (%)
2021-03-01 23:00:00 -- -- -- -- -- -- -- -- --
2021-03-01 22:00:00 8 19 Nordeste 27 Nordeste 0 -- -- 90
2021-03-01 21:00:00 9.1 16 Nordeste 26 Nordeste 0 -- -- 86
2021-03-01 20:00:00 10.2 14 Nordeste 27 Este 0 -- -- 85
2021-03-01 19:00:00 13.2 12 Este 24 Este 0 -- -- 72
2021-03-01 18:00:00 13.1 14 Nordeste 28 Nordeste 0 -- -- 69
2021-03-01 17:00:00 14.5 13 Este 23 Nordeste 0 -- -- 60
2021-03-01 16:00:00 14.2 11 Nordeste 22 Este 0 -- -- 59
2021-03-01 15:00:00 15 11 Este 23 Nordeste 0 -- -- 60
2021-03-01 14:00:00 15.1 12 Este 26 Nordeste 0 -- -- 57
2021-03-01 13:00:00 14.6 14 Este 28 Este 0 -- -- 64
2021-03-01 12:00:00 12.3 18 Este 30 Este 0 -- -- 73
2021-03-01 11:00:00 9 15 Nordeste 28 Este 0 -- -- 87
2021-03-01 10:00:00 6.8 14 Nordeste 23 Nordeste 0 -- -- 94
2021-03-01 09:00:00 6.1 17 Nordeste 26 Nordeste 0 -- -- 96
2021-03-01 08:00:00 5.8 18 Nordeste 27 Nordeste 0 -- -- 95
2021-03-01 07:00:00 5.5 17 Nordeste 24 Nordeste 0 -- -- 92
2021-03-01 06:00:00 5.6 17 Nordeste 23 Nordeste 0 -- -- 91
2021-03-01 05:00:00 5.7 14 Nordeste 29 Este 0 -- -- 91
2021-03-01 04:00:00 5.6 17 Nordeste 29 Nordeste 0 -- -- 91
2021-03-01 03:00:00 5.9 21 Nordeste 30 Nordeste 0 -- -- 89
2021-03-01 02:00:00 5.7 16 Nordeste 28 Nordeste 0 -- -- 89
2021-03-01 01:00:00 6.1 16 Nordeste 31 Nordeste 0 -- -- 85
2021-03-01 00:00:00 6.6 18 Nordeste 28 Nordeste 0 -- -- 82
2021-02-28 23:00:00 8.2 18 Nordeste 30 Nordeste 0 -- -- 77
2021-02-28 22:00:00 8.9 16 Nordeste 26 Este 0 -- -- 80
2021-02-28 21:00:00 11 17 Este 26 Este 0 -- -- 68
2021-02-28 20:00:00 11.2 13 Nordeste 16 Este 0 -- -- 62
2021-02-28 19:00:00 12.6 6 Nordeste 11 Nordeste 0 -- -- 59
2021-02-28 18:00:00 14.1 8 Nordeste 18 Nordeste 0 -- -- 52
2021-02-28 17:00:00 16.1 9 Nordeste 19 Este 0 -- -- 47
2021-02-28 16:00:00 15.8 11 Nordeste 18 Nordeste 0 -- -- 49
2021-02-28 15:00:00 14.3 13 Este 21 Este 0 -- -- 53
2021-02-28 14:00:00 14.6 12 Este 20 Este 0 -- -- 53
2021-02-28 13:00:00 13.8 10 Sudeste 19 Este 0 -- -- 57
2021-02-28 12:00:00 12.6 10 Nordeste 15 Nordeste 0 -- -- 60
2021-02-28 11:00:00 10.7 7 Este 18 Nordeste 0 -- -- 68
2021-02-28 10:00:00 7.2 8 Nordeste 18 Este 0 -- -- 81
2021-02-28 09:00:00 5.4 8 Este 26 Nordeste 0 -- -- 86
2021-02-28 08:00:00 3.6 23 Nordeste 33 Este 0 -- -- 92
2021-02-28 07:00:00 3.5 19 Nordeste 32 Nordeste 0 -- -- 90
2021-02-28 06:00:00 4.3 11 Este 27 Nordeste 0 -- -- 83
2021-02-28 05:00:00 4.8 17 Nordeste 28 Nordeste 0 -- -- 79
2021-02-28 04:00:00 5.2 21 Nordeste 34 Nordeste 0 -- -- 76
2021-02-28 03:00:00 6.5 15 Nordeste 25 Nordeste 0 -- -- 70
2021-02-28 02:00:00 6.8 15 Nordeste 25 Nordeste 0 -- -- 71
2021-02-28 01:00:00 8.1 15 Nordeste 24 Nordeste 0 -- -- 66
2021-02-28 00:00:00 8.6 18 Nordeste 24 Nordeste 0 -- -- 65
2021-02-27 23:00:00 10 19 Este 26 Nordeste 0 -- -- 55
2021-02-27 22:00:00 10.3 17 Nordeste 24 Nordeste 0 -- -- 51
2021-02-27 21:00:00 10.4 17 Nordeste 24 Este 0 -- -- 51
2021-02-27 20:00:00 10.5 18 Nordeste 24 Este 0 -- -- 50
2021-02-27 19:00:00 12.6 13 Este 21 Este 0 -- -- 45
2021-02-27 18:00:00 15.8 12 Este 23 Este 0 -- -- 37
2021-02-27 17:00:00 16.4 12 Este 22 Este 0 -- -- 41
2021-02-27 16:00:00 16.4 15 Este 28 Nordeste 0 -- -- 47
2021-02-27 15:00:00 15.1 14 Este 27 Este 0 -- -- 54
2021-02-27 14:00:00 13.4 17 Este 30 Este 0 -- -- 63
2021-02-27 13:00:00 11.3 19 Este 29 Este 0 -- -- 68
2021-02-27 12:00:00 9.6 16 Este 29 Este 0 -- -- 73
2021-02-27 11:00:00 6.8 20 Este 39 Este 0 -- -- 88
2021-02-27 10:00:00 5.4 20 Este 32 Este 0 -- -- 95
2021-02-27 09:00:00 3.8 19 Este 27 Este 0 -- -- 99
2021-02-27 08:00:00 3.7 16 Este 35 Este 0 -- -- 98
2021-02-27 07:00:00 4.7 23 Este 36 Este 0 -- -- 95
2021-02-27 06:00:00 4.6 22 Nordeste 36 Este 0 -- -- 96
2021-02-27 05:00:00 5.4 26 Nordeste 37 Este 0 -- -- 93
2021-02-27 04:00:00 6.2 26 Este 36 Nordeste 0 -- -- 91
2021-02-27 03:00:00 7.2 22 Este 32 Nordeste 0 -- -- 87
2021-02-27 02:00:00 7.8 18 Nordeste 29 Nordeste 0 -- -- 86
2021-02-27 01:00:00 8 16 Nordeste 27 Nordeste 0 -- -- 85
2021-02-27 00:00:00 9 19 Nordeste 27 Nordeste 0 -- -- 81
2021-02-26 23:00:00 9.1 15 Nordeste 23 Este 0 -- -- 82
2021-02-26 22:00:00 10.3 16 Nordeste 24 Este 0 -- -- 76
2021-02-26 21:00:00 11.4 15 Nordeste 28 Nordeste 0 -- -- 70
2021-02-26 20:00:00 12.6 17 Nordeste 27 Nordeste 0 -- -- 64
2021-02-26 19:00:00 13.5 11 Nordeste 24 Este 0 -- -- 63
2021-02-26 18:00:00 17 12 Nordeste 26 Este 0 -- -- 51
2021-02-26 17:00:00 18.4 14 Nordeste 24 Nordeste 0 -- -- 50
2021-02-26 16:00:00 17.4 15 Nordeste 27 Nordeste 0 -- -- 52
2021-02-26 15:00:00 16.6 17 Nordeste 30 Este 0 -- -- 55
2021-02-26 14:00:00 15.8 16 Nordeste 28 Nordeste 0 -- -- 61
2021-02-26 13:00:00 13.7 15 Nordeste 31 Este 0 -- -- 68
2021-02-26 12:00:00 12.2 20 Este 34 Nordeste 0 -- -- 74
2021-02-26 11:00:00 10 23 Este 37 Este 0 -- -- 81
2021-02-26 10:00:00 8.1 25 Este 38 Este 0 -- -- 87
2021-02-26 09:00:00 6.4 26 Nordeste 38 Nordeste 0 -- -- 94
2021-02-26 08:00:00 5.8 20 Nordeste 33 Nordeste 0 -- -- 96
2021-02-26 07:00:00 6 22 Nordeste 31 Nordeste 0 -- -- 95
2021-02-26 06:00:00 6.4 21 Nordeste 37 Nordeste 0 -- -- 92
2021-02-26 05:00:00 7.3 24 Este 35 Este 0 -- -- 87
2021-02-26 04:00:00 7.3 21 Nordeste 28 Nordeste 0 -- -- 89
2021-02-26 03:00:00 8 16 Nordeste 23 Nordeste 0 -- -- 88
2021-02-26 02:00:00 8 15 Nordeste 26 Nordeste 0 -- -- 90
2021-02-26 01:00:00 9.5 17 Nordeste 24 Nordeste 0 -- -- 83
2021-02-26 00:00:00 10.5 15 Este 22 Este 0 -- -- 79
2021-02-25 23:00:00 10.8 12 Este 17 Este 0 -- -- 77
2021-02-25 22:00:00 11.3 11 Este 18 Este 0 -- -- 75
2021-02-25 21:00:00 11.3 15 Nordeste 21 Nordeste 0 -- -- 76
2021-02-25 20:00:00 11.3 9 Este 12 Este 0 -- -- 74
2021-02-25 19:00:00 11.9 10 Nordeste 16 Este 0 -- -- 72
2021-02-25 18:00:00 13.5 9 Nordeste 18 Nordeste 0 -- -- 64
2021-02-25 17:00:00 14.2 11 Nordeste 17 Nordeste 0 -- -- 57
2021-02-25 16:00:00 14.2 8 Nordeste 14 Nordeste 0 -- -- 58
2021-02-25 15:00:00 15.1 6 Nordeste 13 Nordeste 0 -- -- 51
2021-02-25 14:00:00 13.4 6 Nordeste 13 Nordeste 0 -- -- 61
2021-02-25 13:00:00 12.7 8 Nordeste 16 Nordeste 0 -- -- 63
2021-02-25 12:00:00 11.7 11 Nordeste 21 Nordeste 0 -- -- 65
2021-02-25 11:00:00 10.6 9 Nordeste 19 Nordeste 0 -- -- 67
2021-02-25 10:00:00 7.7 12 Nordeste 22 Nordeste 0 -- -- 77
2021-02-25 09:00:00 5.7 13 Nordeste 24 Nordeste 0 -- -- 82
2021-02-25 08:00:00 4.5 17 Nordeste 28 Nordeste 0 -- -- 87
2021-02-25 07:00:00 4.8 20 Nordeste 29 Nordeste 0 -- -- 87
2021-02-25 06:00:00 4.8 18 Nordeste 24 Nordeste 0 -- -- 89
2021-02-25 05:00:00 5.4 7 Nordeste 23 Nordeste 0 -- -- 88
2021-02-25 04:00:00 6 14 Nordeste 24 Este 0 -- -- 84
2021-02-25 03:00:00 7.4 18 Nordeste 26 Nordeste 0 -- -- 78
2021-02-25 02:00:00 7.8 20 Nordeste 28 Nordeste 0 -- -- 77
2021-02-25 01:00:00 8.5 15 Nordeste 23 Nordeste 0 -- -- 74
2021-02-25 00:00:00 9.2 14 Nordeste 20 Nordeste 0 -- -- 68
2021-02-24 23:00:00 10.2 10 Nordeste 19 Nordeste 0 -- -- 61
2021-02-24 22:00:00 11.4 9 Este 17 Este 0 -- -- 59
2021-02-24 21:00:00 11.5 9 Este 11 Este 0 -- -- 64
2021-02-24 20:00:00 10.7 5 Este 8 Este 0 -- -- 72
2021-02-24 19:00:00 12.7 3 Este 19 Sur 0 -- -- 67
2021-02-24 18:00:00 16.1 13 Sudeste 20 Sur 0 -- -- 51
2021-02-24 17:00:00 18.2 6 Sudeste 19 Este 0 -- -- 49
2021-02-24 16:00:00 17.5 10 Este 24 Este 0 -- -- 52
2021-02-24 15:00:00 16.6 12 Este 27 Este 0 -- -- 54
2021-02-24 14:00:00 15.8 17 Este 29 Este 0 -- -- 57
2021-02-24 13:00:00 14.1 16 Este 27 Este 0 -- -- 63
2021-02-24 12:00:00 13.1 14 Este 30 Nordeste 0 -- -- 63
2021-02-24 11:00:00 9.4 18 Nordeste 27 Nordeste 0 -- -- 76
2021-02-24 10:00:00 7 20 Nordeste 31 Nordeste 0 -- -- 84
2021-02-24 09:00:00 5 21 Nordeste 31 Nordeste 0 -- -- 90
2021-02-24 08:00:00 5.1 22 Nordeste 31 Este 0 -- -- 89
2021-02-24 07:00:00 4.3 15 Nordeste 24 Nordeste 0 -- -- 93
2021-02-24 06:00:00 4.6 19 Nordeste 26 Nordeste 0 -- -- 89
2021-02-24 05:00:00 5 18 Nordeste 26 Nordeste 0 -- -- 87
2021-02-24 04:00:00 5.2 14 Nordeste 22 Este 0 -- -- 86
2021-02-24 03:00:00 5.3 15 Nordeste 27 Nordeste 0 -- -- 85
2021-02-24 02:00:00 6 14 Nordeste 26 Este 0 -- -- 82
2021-02-24 01:00:00 6.1 16 Nordeste 24 Nordeste 0 -- -- 83
2021-02-24 00:00:00 6.8 17 Nordeste 26 Este 0 -- -- 81
2021-02-23 23:00:00 7.1 17 Nordeste 25 Nordeste 0 -- -- 81
2021-02-23 22:00:00 8.3 14 Nordeste 21 Nordeste 0 -- -- 77
2021-02-23 21:00:00 9.2 17 Nordeste 22 Nordeste 0 -- -- 74
2021-02-23 20:00:00 9.7 12 Nordeste 16 Nordeste 0 -- -- 73
2021-02-23 19:00:00 11.6 10 Nordeste 17 Norte 0 -- -- 65
2021-02-23 18:00:00 14 12 Nordeste 23 Este 0 -- -- 53
2021-02-23 17:00:00 15.5 9 Nordeste 31 Este 0 -- -- 51
2021-02-23 16:00:00 14.2 15 Este 27 Este 0 -- -- 54
2021-02-23 15:00:00 14.8 10 Este 26 Este 0 -- -- 51
2021-02-23 14:00:00 14.1 12 Este 26 Este 0 -- -- 55
2021-02-23 13:00:00 12.5 16 Este 27 Este 0 -- -- 58
2021-02-23 12:00:00 11.1 18 Este 27 Este 0 -- -- 63
2021-02-23 11:00:00 9.7 18 Nordeste 27 Nordeste 0 -- -- 64
2021-02-23 10:00:00 7.3 15 Nordeste 22 Nordeste 0 -- -- 74
2021-02-23 09:00:00 5.1 15 Nordeste 21 Nordeste 0 -- -- 79
2021-02-23 08:00:00 0.6 4 Este 17 Nordeste 0 -- -- 97
2021-02-23 07:00:00 4.2 13 Nordeste 17 Nordeste 0 -- -- 78
2021-02-23 06:00:00 3.7 10 Nordeste 15 Nordeste 0 -- -- 85
2021-02-23 05:00:00 1.9 7 Nordeste 9 Nordeste 0 -- -- 94
2021-02-23 04:00:00 3.1 5 Nordeste 10 Nordeste 0 -- -- 89
2021-02-23 03:00:00 2.7 4 Noroeste 8 Norte 0 -- -- 93
2021-02-23 02:00:00 3.9 7 Norte 10 Norte 0 -- -- 91
2021-02-23 01:00:00 3.8 5 Norte 7 Noroeste 0 -- -- 93
2021-02-23 00:00:00 3 0 Calma -- -- 0 -- -- 95
2021-02-22 23:00:00 3.2 0 Calma -- -- 0 -- -- 95
2021-02-22 22:00:00 3.1 0 Calma -- -- 0 -- -- 95
2021-02-22 21:00:00 3.8 0 Calma 4 Noroeste 0 -- -- 90
2021-02-22 20:00:00 4.8 2 Oeste 11 Oeste 0 -- -- 89
2021-02-22 19:00:00 7.8 8 Oeste 21 Oeste 0 -- -- 68
2021-02-22 18:00:00 10.1 12 Oeste 25 Oeste 0 -- -- 54
2021-02-22 17:00:00 11.6 14 Oeste 28 Oeste 0 -- -- 52
2021-02-22 16:00:00 11.2 17 Oeste 27 Oeste 0 -- -- 54
2021-02-22 15:00:00 10.9 15 Oeste 29 Oeste 0 -- -- 55
2021-02-22 14:00:00 10.2 14 Oeste 26 Oeste 0 -- -- 61
2021-02-22 13:00:00 9.1 14 Oeste 28 Oeste 0 -- -- 63
2021-02-22 12:00:00 7.6 18 Oeste 31 Oeste 0 -- -- 65
2021-02-22 11:00:00 5.9 18 Oeste 30 Oeste 0 -- -- 76
2021-02-22 10:00:00 4.6 20 Oeste 33 Oeste 0 -- -- 84
2021-02-22 09:00:00 3.6 14 Oeste 22 Oeste 0 -- -- 91
2021-02-22 08:00:00 1.7 6 Oeste 21 Oeste 0 -- -- 97
2021-02-22 07:00:00 2.6 14 Oeste 27 Oeste 0 -- -- 95
2021-02-22 06:00:00 2.9 13 Oeste 23 Oeste 0 -- -- 96
2021-02-22 05:00:00 3.5 11 Oeste 19 Oeste 0 -- -- 97
2021-02-22 04:00:00 3.8 13 Oeste 26 Oeste 0 -- -- 95
2021-02-22 03:00:00 4 12 Oeste 23 Oeste 0 -- -- 96
2021-02-22 02:00:00 4.7 14 Oeste 26 Oeste 0 -- -- 90
2021-02-22 01:00:00 5.2 18 Oeste 33 Oeste 0 -- -- 91
2021-02-22 00:00:00 5.5 20 Oeste 33 Oeste 0 -- -- 93
2021-02-21 23:00:00 5.8 17 Oeste 32 Oeste 0 -- -- 94
2021-02-21 22:00:00 5.7 19 Oeste 30 Oeste 0 -- -- 94
2021-02-21 21:00:00 5.5 18 Oeste 37 Oeste 0.2 -- -- 97
2021-02-21 20:00:00 5.7 18 Oeste 32 Oeste 0.6 -- -- 98
2021-02-21 19:00:00 6.1 13 Oeste 31 Oeste 0.4 -- -- 96
2021-02-21 18:00:00 7.8 6 Sur 19 Sudoeste 1 -- -- 97
2021-02-21 17:00:00 8 12 Sudoeste 24 Sudoeste 1.8 -- -- 95
2021-02-21 16:00:00 8.7 7 Sudoeste 15 Oeste 1.6 -- -- 95
2021-02-21 15:00:00 8.9 5 Nordeste 13 Este 0.6 -- -- 95
2021-02-21 14:00:00 8.3 10 Este 18 Este 1.2 -- -- 94
2021-02-21 13:00:00 8.6 10 Este 25 Este 0.4 -- -- 92
2021-02-21 12:00:00 9.1 14 Este 23 Nordeste 0 -- -- 82
2021-02-21 11:00:00 9.7 13 Este 21 Este 0 -- -- 75
2021-02-21 10:00:00 8.6 15 Este 25 Nordeste 0 -- -- 79
2021-02-21 09:00:00 8.5 13 Este 17 Nordeste 0 -- -- 78
2021-02-21 08:00:00 8.4 4 Nordeste 12 Nordeste 0 -- -- 75
2021-02-21 07:00:00 10 3 Sudeste 13 Sur 0 -- -- 62
2021-02-21 06:00:00 10.5 4 Sudeste 10 Este 0 -- -- 55
2021-02-21 05:00:00 10.2 10 Este 15 Sudeste 0 -- -- 61
2021-02-21 04:00:00 10.4 7 Nordeste 22 Este 0 -- -- 60
2021-02-21 03:00:00 10.8 15 Nordeste 23 Nordeste 0 -- -- 59
2021-02-21 02:00:00 11.8 17 Este 26 Este 0 -- -- 54
2021-02-21 01:00:00 12.7 11 Este 17 Este 0 -- -- 51
2021-02-21 00:00:00 12.8 10 Este 21 Este 0 -- -- 49
2021-02-20 23:00:00 13 14 Este 21 Este 0 -- -- 49
2021-02-20 22:00:00 13.2 9 Este 15 Este 0 -- -- 50
2021-02-20 21:00:00 12.6 8 Sudeste 11 Sudeste 0 -- -- 55
2021-02-20 20:00:00 12.5 6 Sudeste 9 Sur 0 -- -- 57
2021-02-20 19:00:00 13.1 5 Sur 9 Sur 0 -- -- 55
2021-02-20 18:00:00 14.9 5 Sur 19 Sudoeste 0 -- -- 48
2021-02-20 17:00:00 16.3 12 Sudoeste 36 Sudoeste 0 -- -- 39
2021-02-20 16:00:00 18.6 17 Sudoeste 47 Sur 0 -- -- 34
2021-02-20 15:00:00 18.1 25 Sudoeste 47 Sudoeste 0 -- -- 30
2021-02-20 14:00:00 17.9 18 Sur 38 Sudoeste 0 -- -- 28
2021-02-20 13:00:00 17.9 20 Sur 41 Sur 0 -- -- 28
2021-02-20 12:00:00 17.2 12 Sur 27 Sur 0 -- -- 39
2021-02-20 11:00:00 15.5 10 Sur 24 Sur 0 -- -- 47
2021-02-20 10:00:00 13.7 5 Sudeste 16 Este 0 -- -- 55
2021-02-20 09:00:00 10.7 10 Este 16 Este 0 -- -- 59
2021-02-20 08:00:00 6.7 9 Este 17 Nordeste 0 -- -- 79
2021-02-20 07:00:00 7.9 13 Este 17 Este 0 -- -- 76
2021-02-20 06:00:00 8.9 8 Este 13 Sudeste 0 -- -- 73
2021-02-20 05:00:00 8.6 6 Este 12 Este 0 -- -- 77
2021-02-20 04:00:00 8.2 5 Este 15 Este 0 -- -- 77
2021-02-20 03:00:00 8.7 6 Este 15 Sudeste 0 -- -- 72
2021-02-20 02:00:00 7.5 9 Sudeste 15 Sudeste 0 -- -- 77
2021-02-20 01:00:00 9.6 9 Sudeste 13 Sudeste 0 -- -- 68
2021-02-20 00:00:00 9.8 7 Sudeste 12 Sudeste 0 -- -- 65
2021-02-19 23:00:00 8.4 6 Sudeste 12 Sudeste 0 -- -- 67
2021-02-19 22:00:00 7.6 0 Calma 8 Oeste 0 -- -- 71
2021-02-19 21:00:00 8.8 0 Calma 5 Sudoeste 0 -- -- 70
2021-02-19 20:00:00 10.9 3 Sur 8 Sudoeste 0 -- -- 57
2021-02-19 19:00:00 13.5 4 Sudoeste 17 Sudoeste 0 -- -- 54
2021-02-19 18:00:00 16.4 7 Sudoeste 30 Sudoeste 0 -- -- 40
2021-02-19 17:00:00 19.2 13 Sudoeste 35 Sudoeste 0 -- -- 30
2021-02-19 16:00:00 19.3 20 Sudoeste 34 Sudoeste 0 -- -- 27
2021-02-19 15:00:00 19.8 15 Sudoeste 29 Sudoeste 0 -- -- 34
2021-02-19 14:00:00 19.5 15 Sudoeste 28 Sur 0 -- -- 29
2021-02-19 13:00:00 18.4 9 Sur 18 Sur 0 -- -- 37
2021-02-19 12:00:00 17.5 8 Sur 14 Sur 0 -- -- 41
2021-02-19 11:00:00 15.3 5 Sudeste 10 Sudeste 0 -- -- 47
2021-02-19 10:00:00 13.5 5 Sudeste 7 Sudeste 0 -- -- 47
2021-02-19 09:00:00 8.5 4 Este 6 Este 0 -- -- 68
2021-02-19 08:00:00 5.1 5 Nordeste 8 Nordeste 0 -- -- 78
2021-02-19 07:00:00 5.1 5 Nordeste 8 Nordeste 0 -- -- 78
2021-02-19 06:00:00 4.3 0 Calma 6 Este 0 -- -- 86
2021-02-19 05:00:00 5.6 4 Este 8 Sudeste 0 -- -- 79
2021-02-19 04:00:00 5.6 3 Este 5 Nordeste 0 -- -- 78
2021-02-19 03:00:00 6.2 4 Nordeste 6 Nordeste 0 -- -- 75
2021-02-19 02:00:00 6 4 Nordeste 6 Este 0 -- -- 83
2021-02-19 01:00:00 6.3 3 Nordeste 4 Este 0 -- -- 88
2021-02-19 00:00:00 6.8 3 Este 4 Este 0 -- -- 89
2021-02-18 23:00:00 7.2 2 Este 5 Nordeste 0 -- -- 82
2021-02-18 22:00:00 7.9 3 Este 5 Sudeste 0 -- -- 74
2021-02-18 21:00:00 8.7 3 Noroeste 5 Noroeste 0 -- -- 69
2021-02-18 20:00:00 9.4 0 Calma 6 Noroeste 0 -- -- 63
2021-02-18 19:00:00 12 5 Noroeste 12 Oeste 0 -- -- 55
2021-02-18 18:00:00 15.8 10 Oeste 21 Oeste 0 -- -- 39
2021-02-18 17:00:00 17.6 8 Oeste 21 Oeste 0 -- -- 38
2021-02-18 16:00:00 17.3 13 Oeste 25 Sudoeste 0 -- -- 37
2021-02-18 15:00:00 17.5 11 Oeste 21 Oeste 0 -- -- 39
2021-02-18 14:00:00 16.6 14 Oeste 24 Oeste 0 -- -- 42
2021-02-18 13:00:00 16 9 Oeste 15 Oeste 0 -- -- 50
2021-02-18 12:00:00 15.4 7 Noroeste 13 Noroeste 0 -- -- 53
2021-02-18 11:00:00 14.9 3 Oeste 6 Oeste 0 -- -- 57
2021-02-18 10:00:00 13 0 Calma 4 Nordeste 0 -- -- 62
2021-02-18 09:00:00 6.8 3 Nordeste 5 Nordeste 0 -- -- 85
2021-02-18 08:00:00 4.1 4 Nordeste 6 Nordeste 0 -- -- 92
2021-02-18 07:00:00 3.6 0 Calma 4 Sudeste 0 -- -- 94
2021-02-18 06:00:00 4.3 0 Calma -- -- 0 -- -- 93
2021-02-18 05:00:00 5.2 0 Calma 4 Norte 0 -- -- 88
2021-02-18 04:00:00 5.8 2 Norte 3 Norte 0 -- -- 85
2021-02-18 03:00:00 6.8 4 Nordeste 6 Noroeste 0 -- -- 79
2021-02-18 02:00:00 7.1 6 Noroeste 8 Noroeste 0 -- -- 76
2021-02-18 01:00:00 8.1 5 Nordeste 7 Nordeste 0 -- -- 69
2021-02-18 00:00:00 8.3 4 Nordeste 6 Nordeste 0 -- -- 68
2021-02-17 23:00:00 9 0 Calma 6 Norte 0 -- -- 67
2021-02-17 22:00:00 10.3 5 Nordeste 6 Nordeste 0 -- -- 57
2021-02-17 21:00:00 9.2 4 Nordeste 5 Noroeste 0 -- -- 69
2021-02-17 20:00:00 11.6 4 Noroeste 6 Noroeste 0 -- -- 52
2021-02-17 19:00:00 13.5 3 Norte 8 Oeste 0 -- -- 54
2021-02-17 18:00:00 18 6 Oeste 17 Oeste 0 -- -- 38
2021-02-17 17:00:00 19.6 12 Oeste 22 Oeste 0 -- -- 31
2021-02-17 16:00:00 20.3 9 Oeste 20 Oeste 0 -- -- 33
2021-02-17 15:00:00 19.5 7 Oeste 15 Oeste 0 -- -- 37
2021-02-17 14:00:00 19.3 6 Oeste 12 Oeste 0 -- -- 38
2021-02-17 13:00:00 18.8 4 Sudoeste 11 Sudeste 0 -- -- 42
2021-02-17 12:00:00 17.4 5 Sudeste 10 Sudeste 0 -- -- 52
2021-02-17 11:00:00 14.8 4 Sudeste 8 Sudeste 0 -- -- 60
2021-02-17 10:00:00 12.6 2 Este 5 Noroeste 0 -- -- 71
2021-02-17 09:00:00 8.4 5 Norte 10 Nordeste 0 -- -- 83
2021-02-17 08:00:00 6 8 Nordeste 12 Nordeste 0 -- -- 91
2021-02-17 07:00:00 5.5 6 Nordeste 10 Nordeste 0 -- -- 94
2021-02-17 06:00:00 6.2 9 Nordeste 10 Nordeste 0 -- -- 94
2021-02-17 05:00:00 5.6 6 Nordeste 7 Nordeste 0 -- -- 97
2021-02-17 04:00:00 6.4 0 Calma 9 Noroeste 0 -- -- 91
2021-02-17 03:00:00 6.1 5 Noroeste 7 Noroeste 0 -- -- 93
2021-02-17 02:00:00 5.9 2 Nordeste 6 Nordeste 0 -- -- 92
2021-02-17 01:00:00 6.5 4 Nordeste 6 Nordeste 0 -- -- 90
2021-02-17 00:00:00 7.3 5 Nordeste 6 Nordeste 0 -- -- 87
2021-02-16 23:00:00 7.9 3 Norte 5 Nordeste 0 -- -- 86
2021-02-16 22:00:00 8.7 0 Calma 4 Nordeste 0 -- -- 82
2021-02-16 21:00:00 10.1 2 Noroeste 8 Noroeste 0 -- -- 70
2021-02-16 20:00:00 10.8 6 Noroeste 8 Noroeste 0 -- -- 70
2021-02-16 19:00:00 12.6 3 Noroeste 8 Oeste 0 -- -- 70
2021-02-16 18:00:00 16.8 5 Oeste 14 Oeste 0 -- -- 49
2021-02-16 17:00:00 18.4 8 Oeste 18 Oeste 0 -- -- 42
2021-02-16 16:00:00 18.8 8 Sudoeste 18 Sudoeste 0 -- -- 41
2021-02-16 15:00:00 17.5 8 Oeste 15 Oeste 0 -- -- 45
2021-02-16 14:00:00 17.3 6 Sudoeste 14 Oeste 0 -- -- 48
2021-02-16 13:00:00 15.9 4 Oeste 12 Oeste 0 -- -- 50
2021-02-16 12:00:00 13.3 5 Norte 9 Sudeste 0 -- -- 67
2021-02-16 11:00:00 10.7 6 Nordeste 14 Nordeste 0 -- -- 74
2021-02-16 10:00:00 7.1 10 Nordeste 15 Nordeste 0 -- -- 85
2021-02-16 09:00:00 4.5 9 Nordeste 16 Norte 0 -- -- 93
2021-02-16 08:00:00 3.6 12 Nordeste 22 Nordeste 0 -- -- 97
2021-02-16 07:00:00 3.9 15 Nordeste 26 Nordeste 0 -- -- 96
2021-02-16 06:00:00 4.6 18 Nordeste 24 Nordeste 0 -- -- 95
2021-02-16 05:00:00 5 14 Nordeste 23 Nordeste 0 -- -- 95
2021-02-16 04:00:00 5.4 14 Norte 25 Nordeste 0 -- -- 94
2021-02-16 03:00:00 6.6 14 Norte 21 Norte 0 -- -- 89
2021-02-16 02:00:00 7.8 12 Nordeste 21 Este 0 -- -- 84
2021-02-16 01:00:00 7.3 13 Nordeste 21 Norte 0 -- -- 88
2021-02-16 00:00:00 7.9 10 Nordeste 14 Nordeste 0 -- -- 89
2021-02-15 23:00:00 9.3 9 Nordeste 16 Nordeste 0 -- -- 82
2021-02-15 22:00:00 10.3 13 Nordeste 19 Nordeste 0 -- -- 78
2021-02-15 21:00:00 10.8 12 Nordeste 19 Este 0 -- -- 77
2021-02-15 20:00:00 10.7 12 Nordeste 18 Nordeste 0 -- -- 79
2021-02-15 19:00:00 12.3 12 Nordeste 22 Nordeste 0 -- -- 75
2021-02-15 18:00:00 15.2 13 Nordeste 23 Este 0 -- -- 64
2021-02-15 17:00:00 16.6 17 Este 24 Este 0 -- -- 59
2021-02-15 16:00:00 16.9 15 Este 27 Este 0 -- -- 58
2021-02-15 15:00:00 16.5 17 Este 27 Este 0 -- -- 55
2021-02-15 14:00:00 16 14 Este 22 Este 0 -- -- 57
2021-02-15 13:00:00 14.7 9 Sudeste 18 Este 0 -- -- 61
2021-02-15 12:00:00 13.6 11 Este 21 Nordeste 0 -- -- 65
2021-02-15 11:00:00 9.9 14 Nordeste 26 Nordeste 0 -- -- 78
2021-02-15 10:00:00 7.3 12 Nordeste 28 Nordeste 0 -- -- 87
2021-02-15 09:00:00 5.2 16 Nordeste 26 Este 0 -- -- 94
2021-02-15 08:00:00 4 14 Nordeste 23 Nordeste 0 -- -- 99
2021-02-15 07:00:00 4.5 17 Nordeste 23 Nordeste 0 -- -- 97
2021-02-15 06:00:00 4.8 7 Nordeste 18 Nordeste 0 -- -- 96
2021-02-15 05:00:00 5.6 13 Nordeste 23 Nordeste 0 -- -- 93
2021-02-15 04:00:00 6.1 14 Nordeste 24 Nordeste 0 -- -- 91
2021-02-15 03:00:00 6.8 17 Nordeste 25 Nordeste 0 -- -- 87
2021-02-15 02:00:00 7.7 13 Este 25 Este 0 -- -- 82
2021-02-15 01:00:00 9.1 16 Nordeste 24 Este 0 -- -- 75
2021-02-15 00:00:00 10.3 13 Este 20 Este 0 -- -- 69
2021-02-14 23:00:00 10.1 13 Nordeste 19 Nordeste 0 -- -- 69
2021-02-14 22:00:00 10.9 13 Nordeste 21 Nordeste 0 -- -- 66
2021-02-14 21:00:00 12 16 Este 23 Nordeste 0 -- -- 62
2021-02-14 20:00:00 12.1 16 Nordeste 21 Este 0 -- -- 63
2021-02-14 19:00:00 12.6 14 Nordeste 21 Este 0 -- -- 62
2021-02-14 18:00:00 15.3 12 Este 22 Este 0 -- -- 53
2021-02-14 17:00:00 17.1 13 Este 24 Este 0 -- -- 46
2021-02-14 16:00:00 17.2 15 Este 27 Este 0 -- -- 44
2021-02-14 15:00:00 17 14 Este 28 Este 0 -- -- 46
2021-02-14 14:00:00 15.9 14 Este 22 Este 0 -- -- 52
2021-02-14 13:00:00 14.9 12 Este 22 Nordeste 0 -- -- 59
2021-02-14 12:00:00 12.5 13 Nordeste 23 Este 0 -- -- 68
2021-02-14 11:00:00 11.4 18 Este 26 Este 0 -- -- 68
2021-02-14 10:00:00 10 11 Este 22 Nordeste 0 -- -- 76
2021-02-14 09:00:00 6.3 14 Nordeste 23 Nordeste 0 -- -- 87
2021-02-14 08:00:00 5.5 18 Nordeste 23 Nordeste 0 -- -- 90
2021-02-14 07:00:00 6.2 14 Nordeste 20 Nordeste 0 -- -- 91
2021-02-14 06:00:00 5.3 0 Calma 10 Nordeste 0 -- -- 92
2021-02-14 05:00:00 4.4 3 Norte 5 Norte 0 -- -- 97
2021-02-14 04:00:00 5.4 4 Nordeste 8 Nordeste 0 -- -- 93
2021-02-14 03:00:00 5.6 5 Nordeste 11 Nordeste 0 -- -- 94
2021-02-14 02:00:00 5.7 0 Calma 10 Nordeste 0 -- -- 93
2021-02-14 01:00:00 5.7 5 Nordeste 7 Nordeste 0 -- -- 96
2021-02-14 00:00:00 5.8 2 Nordeste 8 Este 0 -- -- 97
2021-02-13 23:00:00 6.2 0 Calma 6 Oeste 0 -- -- 96
2021-02-13 22:00:00 7.1 0 Calma 6 Noroeste 0 -- -- 92
2021-02-13 21:00:00 9.2 3 Oeste 14 Noroeste 0 -- -- 80
2021-02-13 20:00:00 10 9 Noroeste 12 Noroeste 0 -- -- 67
2021-02-13 19:00:00 10.8 0 Calma 13 Oeste 0 -- -- 73
2021-02-13 18:00:00 14.3 9 Oeste 16 Oeste 0 -- -- 55
2021-02-13 17:00:00 15.9 10 Oeste 19 Oeste 0 -- -- 50
2021-02-13 16:00:00 16.2 11 Oeste 21 Oeste 0 -- -- 45
2021-02-13 15:00:00 15 12 Oeste 22 Oeste 0 -- -- 55
2021-02-13 14:00:00 14.3 11 Oeste 22 Oeste 0 -- -- 63
2021-02-13 13:00:00 12.6 8 Oeste 16 Oeste 0 -- -- 72
2021-02-13 08:00:00 -- -- -- -- -- -- -- -- --
2021-02-13 07:00:00 2.8 0 Calma 4 Oeste 0 -- -- 100
2021-02-13 06:00:00 3 3 Noroeste 5 Oeste 0 -- -- 100
2021-02-13 05:00:00 3.8 3 Noroeste 4 Noroeste 0 -- -- 100
2021-02-13 04:00:00 4.3 2 Norte 3 Nordeste 0 -- -- 100
2021-02-13 03:00:00 4.9 0 Calma 4 Este 0 -- -- 100
2021-02-13 02:00:00 4.8 0 Calma 5 Oeste 0 -- -- 100
2021-02-13 01:00:00 5.3 3 Norte 4 Norte 0 -- -- 100
2021-02-13 00:00:00 4.9 3 Noroeste 6 Oeste 0 -- -- 98
2021-02-12 23:00:00 5.7 3 Norte 10 Sudeste 0 -- -- 97
2021-02-12 22:00:00 6.7 4 Noroeste 13 Noroeste 0 -- -- 92
2021-02-12 21:00:00 7.8 10 Noroeste 15 Oeste 0 -- -- 89
2021-02-12 20:00:00 8.8 8 Noroeste 13 Noroeste 0 -- -- 86
2021-02-12 19:00:00 10 7 Oeste 28 Oeste 0 -- -- 80
2021-02-12 18:00:00 12.4 15 Oeste 28 Oeste 0 -- -- 70
2021-02-12 17:00:00 13.1 18 Oeste 34 Oeste 0 -- -- 64
2021-02-12 16:00:00 12.9 20 Oeste 32 Oeste 0 -- -- 69
2021-02-12 15:00:00 13 21 Oeste 36 Oeste 0 -- -- 70
2021-02-12 14:00:00 12.7 19 Oeste 33 Oeste 0 -- -- 74
2021-02-12 13:00:00 11.8 18 Oeste 39 Oeste 0 -- -- 74
2021-02-12 12:00:00 11.8 21 Oeste 40 Oeste 0 -- -- 78
2021-02-12 11:00:00 9.8 22 Oeste 39 Oeste 0 -- -- 84
2021-02-12 10:00:00 10 24 Oeste 45 Oeste 0.2 -- -- 87
2021-02-12 09:00:00 8.9 21 Oeste 42 Oeste 0 -- -- 93
2021-02-12 08:00:00 9.8 14 Oeste 31 Oeste 1.4 -- -- 99
2021-02-12 07:00:00 10.1 17 Sudoeste 29 Oeste 0 -- -- 99
2021-02-12 06:00:00 10.2 10 Sudoeste 28 Sudoeste 0 -- -- 99
2021-02-12 05:00:00 10.5 19 Sudoeste 29 Sudoeste 0 -- -- 97
2021-02-12 04:00:00 10.6 14 Sudoeste 28 Sudoeste 0 -- -- 98
2021-02-12 03:00:00 10.6 12 Sudoeste 19 Sudoeste 0 -- -- 98
2021-02-12 02:00:00 9.9 6 Sudoeste 12 Sudoeste 0 -- -- 99
2021-02-12 01:00:00 9.5 3 Sudoeste 7 Sudoeste 0 -- -- 99
2021-02-12 00:00:00 10.1 4 Sudoeste 8 Oeste 0 -- -- 99
2021-02-11 23:00:00 10.5 4 Sudoeste 12 Sur 0 -- -- 97
2021-02-11 22:00:00 10.9 4 Sudoeste 13 Sudoeste 0 -- -- 97
2021-02-11 21:00:00 11.7 6 Sudoeste 12 Sudoeste 0 -- -- 95
2021-02-11 20:00:00 11.9 4 Oeste 9 Oeste 0 -- -- 94
2021-02-11 19:00:00 12.4 3 Sudoeste 13 Oeste 0 -- -- 91
2021-02-11 18:00:00 12.9 10 Oeste 15 Oeste 0 -- -- 89
2021-02-11 17:00:00 13.8 9 Oeste 17 Oeste 0 -- -- 85
2021-02-11 16:00:00 14.1 10 Oeste 19 Oeste 0 -- -- 84
2021-02-11 15:00:00 13.7 9 Oeste 13 Oeste 0 -- -- 86
2021-02-11 14:00:00 14 7 Oeste 14 Oeste 0 -- -- 84
2021-02-11 13:00:00 13.5 6 Sudoeste 13 Sudoeste 0 -- -- 86
2021-02-11 12:00:00 12.9 7 Sudoeste 15 Sudoeste 0 -- -- 92
2021-02-11 11:00:00 11.6 7 Sudoeste 13 Oeste 0 -- -- 98
2021-02-11 10:00:00 10.5 6 Oeste 13 Oeste 0 -- -- 100
2021-02-11 09:00:00 10.3 5 Sudoeste 15 Oeste 0.2 -- -- 100
2021-02-11 08:00:00 9.8 5 Sudoeste 13 Oeste 0 -- -- 100
2021-02-11 07:00:00 9.9 4 Sudoeste 9 Sudoeste 0 -- -- 100
2021-02-11 06:00:00 10.1 5 Sudoeste 12 Oeste 0 -- -- 100
2021-02-11 05:00:00 10.1 7 Oeste 15 Oeste 0 -- -- 100
2021-02-11 04:00:00 9.9 8 Oeste 12 Sudoeste 0.2 -- -- 100
2021-02-11 03:00:00 9.7 8 Oeste 13 Oeste 0 -- -- 100
2021-02-11 02:00:00 9.3 5 Sudoeste 12 Oeste 0 -- -- 100
2021-02-11 01:00:00 9.4 8 Sudoeste 20 Oeste 0 -- -- 99
2021-02-11 00:00:00 9.6 9 Oeste 15 Oeste 0 -- -- 99
2021-02-10 23:00:00 9.3 6 Oeste 14 Sudoeste 0 -- -- 96
2021-02-10 22:00:00 8.8 5 Oeste 17 Oeste 0 -- -- 96
2021-02-10 21:00:00 7.4 0 Calma 13 Oeste 0 -- -- 96
2021-02-10 20:00:00 8.2 5 Oeste 10 Oeste 0 -- -- 90
2021-02-10 19:00:00 9.3 8 Oeste 24 Oeste 0 -- -- 83
2021-02-10 18:00:00 11.3 16 Oeste 33 Oeste 0 -- -- 68
2021-02-10 17:00:00 13 21 Oeste 35 Oeste 0 -- -- 63
2021-02-10 16:00:00 13 22 Oeste 38 Oeste 0 -- -- 63
2021-02-10 15:00:00 12.9 23 Oeste 39 Oeste 0 -- -- 64
2021-02-10 14:00:00 12.4 25 Oeste 44 Oeste 0 -- -- 65
2021-02-10 13:00:00 11.8 29 Oeste 44 Oeste 0 -- -- 74
2021-02-10 12:00:00 11 29 Oeste 49 Oeste 0 -- -- 78
2021-02-10 11:00:00 9.4 22 Oeste 33 Oeste 0 -- -- 96
2021-02-10 10:00:00 8.4 21 Oeste 33 Oeste 0.2 -- -- 99
2021-02-10 09:00:00 7.9 18 Oeste 51 Oeste 0.6 -- -- 100
2021-02-10 08:00:00 7.7 23 Oeste 39 Oeste 1.4 -- -- 99
2021-02-10 07:00:00 7.5 30 Oeste 60 Sudoeste 1 -- -- 96
2021-02-10 06:00:00 7.8 23 Sudoeste 54 Oeste 0.2 -- -- 98
2021-02-10 05:00:00 8.2 33 Sudoeste 61 Sudoeste 0 -- -- 89
2021-02-10 04:00:00 7.7 33 Sudoeste 53 Sudoeste 0 -- -- 91
2021-02-10 03:00:00 7.8 34 Sudoeste 62 Sudoeste 0 -- -- 89
2021-02-10 02:00:00 7.5 28 Sudoeste 57 Sudoeste 0 -- -- 93
2021-02-10 01:00:00 7.8 23 Sudoeste 40 Oeste 0 -- -- 94
2021-02-10 00:00:00 8.2 21 Sudoeste 38 Oeste 0 -- -- 94
2021-02-09 23:00:00 8.5 23 Oeste 39 Oeste 0 -- -- 93
2021-02-09 22:00:00 8.4 21 Sudoeste 44 Oeste 0 -- -- 95
2021-02-09 21:00:00 8.7 19 Oeste 44 Oeste 0.2 -- -- 96
2021-02-09 20:00:00 8.9 22 Sudoeste 36 Sudoeste 1 -- -- 100
2021-02-09 19:00:00 8.6 18 Oeste 36 Oeste 1 -- -- 100
2021-02-09 18:00:00 9.1 25 Oeste 45 Sudoeste 0.2 -- -- 97
2021-02-09 17:00:00 9.4 30 Sudoeste 46 Sudoeste 1.2 -- -- 98
2021-02-09 16:00:00 9.4 30 Sudoeste 52 Sudoeste 1 -- -- 96
2021-02-09 15:00:00 9.2 23 Sudoeste 51 Sudoeste 2.2 -- -- 95
2021-02-09 14:00:00 9 20 Sudoeste 53 Sudoeste 1.4 -- -- 96
2021-02-09 13:00:00 9.4 23 Sudoeste 42 Sudoeste 0 -- -- 90
2021-02-09 12:00:00 8.7 24 Sudoeste 40 Sudoeste 0 -- -- 96
2021-02-09 11:00:00 8 14 Sudoeste 34 Sudoeste 0.2 -- -- 96
2021-02-09 10:00:00 8.4 13 Sudoeste 32 Sudoeste 0 -- -- 86
2021-02-09 09:00:00 7.4 16 Sudoeste 33 Sudoeste 0 -- -- 94
2021-02-09 08:00:00 7.6 18 Sudoeste 33 Sudoeste 0 -- -- 91
2021-02-09 07:00:00 7.4 10 Sudoeste 36 Sudoeste 0 -- -- 91
2021-02-09 06:00:00 7.1 17 Sudoeste 30 Sudoeste 0 -- -- 92
2021-02-09 05:00:00 6.6 13 Sudoeste 25 Sudoeste 0 -- -- 93
2021-02-09 04:00:00 6.7 14 Sudoeste 32 Sudoeste 0 -- -- 93
2021-02-09 03:00:00 6.7 18 Sudoeste 32 Sudoeste 0 -- -- 94
2021-02-09 02:00:00 6.6 15 Sudoeste 26 Sudoeste 0 -- -- 95
2021-02-09 01:00:00 6.8 17 Sudoeste 31 Sudoeste 0 -- -- 93
2021-02-09 00:00:00 7.3 18 Sudoeste 30 Sudoeste 0 -- -- 88
2021-02-08 23:00:00 7.3 8 Sudoeste 29 Oeste 0 -- -- 90
2021-02-08 22:00:00 7.2 18 Oeste 39 Oeste 0 -- -- 88
2021-02-08 21:00:00 7.2 24 Oeste 37 Oeste 0 -- -- 89
2021-02-08 20:00:00 7.1 27 Oeste 42 Oeste 0 -- -- 88
2021-02-08 19:00:00 7.4 17 Oeste 47 Oeste 0 -- -- 85
2021-02-08 18:00:00 8.6 25 Oeste 41 Oeste 0 -- -- 81
2021-02-08 17:00:00 8 25 Oeste 52 Oeste 0 -- -- 90
2021-02-08 16:00:00 9.4 25 Oeste 44 Oeste 0.2 -- -- 81
2021-02-08 15:00:00 8.8 25 Oeste 52 Oeste 0 -- -- 86
2021-02-08 14:00:00 9.3 28 Oeste 51 Oeste 0 -- -- 82
2021-02-08 13:00:00 7.6 27 Sudoeste 45 Sudoeste 0.4 -- -- 92
2021-02-08 12:00:00 7.3 22 Sudoeste 39 Oeste 0.6 -- -- 97
2021-02-08 11:00:00 7.1 24 Oeste 43 Oeste 0 -- -- 93
2021-02-08 10:00:00 8.2 19 Oeste 39 Oeste 0 -- -- 86
2021-02-08 09:00:00 6.7 24 Oeste 45 Oeste 0 -- -- 89
2021-02-08 08:00:00 6.9 17 Oeste 36 Oeste 0 -- -- 92
2021-02-08 07:00:00 6.9 22 Oeste 60 Oeste 2 -- -- 95
2021-02-08 06:00:00 8.5 20 Sudoeste 41 Oeste 1.8 -- -- 98
2021-02-08 05:00:00 8.1 18 Sudoeste 37 Sudoeste 0.4 -- -- 97
2021-02-08 04:00:00 7.3 14 Sudoeste 30 Oeste 0 -- -- 98
2021-02-08 03:00:00 6.5 17 Sudoeste 31 Sudoeste 0.4 -- -- 100
2021-02-08 02:00:00 6.4 21 Sudoeste 33 Sudoeste 0 -- -- 95
2021-02-08 01:00:00 6.3 13 Sudoeste 33 Sudoeste 0 -- -- 93
2021-02-08 00:00:00 5.8 10 Sudoeste 24 Sudoeste 0 -- -- 98
2021-02-07 23:00:00 6 8 Sudoeste 29 Sudoeste 0 -- -- 91
2021-02-07 22:00:00 5.9 15 Sudoeste 27 Oeste 0 -- -- 92
2021-02-07 21:00:00 5.7 18 Oeste 33 Oeste 0 -- -- 91
2021-02-07 20:00:00 5.6 15 Sudoeste 33 Oeste 0.2 -- -- 91
2021-02-07 19:00:00 6.4 21 Oeste 41 Oeste 0 -- -- 83
2021-02-07 18:00:00 7 21 Oeste 41 Oeste 0 -- -- 77
2021-02-07 17:00:00 8.3 23 Oeste 40 Oeste 0 -- -- 77
2021-02-07 16:00:00 8.5 24 Oeste 44 Sudoeste 0 -- -- 75
2021-02-07 15:00:00 9.8 25 Oeste 44 Oeste 0 -- -- 71
2021-02-07 14:00:00 7.9 21 Sudoeste 35 Oeste 0 -- -- 84
2021-02-07 13:00:00 6.8 19 Oeste 32 Oeste 0 -- -- 91
2021-02-07 12:00:00 6 15 Sudoeste 24 Sudoeste 0 -- -- 95
2021-02-07 11:00:00 6 14 Sudoeste 28 Oeste 0 -- -- 93
2021-02-07 10:00:00 6.3 14 Oeste 26 Sudoeste 0 -- -- 95
2021-02-07 09:00:00 6.6 8 Sudoeste 16 Oeste 0 -- -- 100
2021-02-07 08:00:00 6.4 6 Oeste 17 Oeste 0 -- -- 98
2021-02-07 07:00:00 6.2 8 Oeste 15 Oeste 0 -- -- 99
2021-02-07 06:00:00 6.5 6 Sudoeste 13 Oeste 0 -- -- 100
2021-02-07 05:00:00 6.4 7 Oeste 16 Oeste 0 -- -- 100
2021-02-07 04:00:00 6.5 12 Oeste 20 Oeste 0 -- -- 100
2021-02-07 03:00:00 6.6 10 Oeste 18 Oeste 0 -- -- 100
2021-02-07 02:00:00 6.8 10 Oeste 16 Oeste 0 -- -- 100
2021-02-07 01:00:00 6.8 7 Oeste 13 Oeste 0 -- -- 100
2021-02-07 00:00:00 6.6 6 Oeste 10 Sudoeste 0 -- -- 100
2021-02-06 23:00:00 6.9 3 Oeste 9 Sudoeste 0 -- -- 100
2021-02-06 22:00:00 7.1 8 Oeste 13 Oeste 0.2 -- -- 99
2021-02-06 21:00:00 7.3 3 Oeste 7 Sudoeste 0 -- -- 97
2021-02-06 20:00:00 7.4 4 Oeste 13 Sudoeste 0 -- -- 96
2021-02-06 19:00:00 7.6 5 Sudoeste 13 Sudoeste 0 -- -- 97
2021-02-06 18:00:00 8 7 Sudoeste 16 Sudoeste 0.2 -- -- 94
2021-02-06 17:00:00 8.5 7 Oeste 22 Oeste 0 -- -- 93
2021-02-06 16:00:00 8.7 14 Oeste 24 Oeste 0.2 -- -- 91
2021-02-06 15:00:00 8.2 9 Sudoeste 24 Sudoeste 0 -- -- 94
2021-02-06 14:00:00 8.4 12 Sudoeste 27 Sudoeste 0 -- -- 95
2021-02-06 13:00:00 9 11 Sudoeste 27 Sur 0 -- -- 90
2021-02-06 12:00:00 8.3 12 Sudoeste 24 Sudoeste 0 -- -- 92
2021-02-06 11:00:00 7.3 11 Sudoeste 27 Sudoeste 0 -- -- 94
2021-02-06 10:00:00 7.2 12 Sudoeste 28 Sudoeste 0 -- -- 92
2021-02-06 09:00:00 7 14 Sudoeste 26 Sudoeste 0 -- -- 96
2021-02-06 08:00:00 7.3 10 Sudoeste 18 Sur 0 -- -- 97
2021-02-06 07:00:00 7.3 6 Sur 14 Sudeste 0.4 -- -- 98
2021-02-06 06:00:00 7.4 8 Sudeste 14 Este 0 -- -- 95
2021-02-06 05:00:00 7.4 9 Este 15 Sur 0 -- -- 93
2021-02-06 04:00:00 7.1 5 Sur 15 Sur 0 -- -- 95
2021-02-06 03:00:00 7.3 8 Sur 29 Sur 0.8 -- -- 94
2021-02-06 02:00:00 7.9 4 Sur 9 Sur 0 -- -- 95
2021-02-06 01:00:00 7.9 2 Sudoeste 11 Sur 0 -- -- 96
2021-02-06 00:00:00 7.9 5 Sudeste 9 Sudeste 0 -- -- 97
2021-02-05 23:00:00 7.5 3 Este 12 Sur 0 -- -- 98
2021-02-05 22:00:00 8.2 6 Sudoeste 15 Sudoeste 0.2 -- -- 96
2021-02-05 21:00:00 8.1 7 Oeste 12 Oeste 0 -- -- 98
2021-02-05 20:00:00 8.3 10 Oeste 37 Oeste 1.8 -- -- 98
2021-02-05 19:00:00 9.5 17 Sudoeste 28 Sudeste 3 -- -- 95
2021-02-05 18:00:00 12.8 8 Sudoeste 21 Sur 0 -- -- 76
2021-02-05 17:00:00 15.5 8 Sudoeste 17 Sudoeste 0 -- -- 61
2021-02-05 16:00:00 15.5 10 Oeste 19 Oeste 0 -- -- 64
2021-02-05 15:00:00 15.4 10 Oeste 17 Sudoeste 0 -- -- 58
2021-02-05 14:00:00 16.1 3 Sudoeste 13 Sur 0 -- -- 57
2021-02-05 13:00:00 15.3 4 Oeste 15 Nordeste 0 -- -- 63
2021-02-05 12:00:00 14.5 5 Este 10 Sudoeste 0 -- -- 68
2021-02-05 11:00:00 11.5 6 Oeste 9 Oeste 0 -- -- 79
2021-02-05 10:00:00 9.7 3 Oeste 5 Sur 0 -- -- 83
2021-02-05 09:00:00 6.6 2 Nordeste 12 Este 0 -- -- 96
2021-02-05 08:00:00 5.8 5 Este 10 Nordeste 0 -- -- 96
2021-02-05 07:00:00 7.3 6 Oeste 28 Nordeste 0 -- -- 93
2021-02-05 06:00:00 8.2 20 Nordeste 38 Este 0 -- -- 90
2021-02-05 05:00:00 8.7 22 Nordeste 35 Este 0 -- -- 88
2021-02-05 04:00:00 8.7 24 Nordeste 32 Nordeste 0 -- -- 86
2021-02-05 03:00:00 10.2 19 Nordeste 32 Nordeste 0 -- -- 79
2021-02-05 02:00:00 10.2 23 Nordeste 35 Este 0 -- -- 83
2021-02-05 01:00:00 10.2 19 Nordeste 38 Este 0 -- -- 83
2021-02-05 00:00:00 11 26 Este 40 Nordeste 0 -- -- 82
2021-02-04 23:00:00 10.9 20 Nordeste 33 Este 0 -- -- 83
2021-02-04 22:00:00 10.8 17 Este 27 Este 0 -- -- 84
2021-02-04 21:00:00 10.9 13 Este 19 Este 0 -- -- 84
2021-02-04 20:00:00 10.5 8 Este 12 Este 0 -- -- 87
2021-02-04 19:00:00 10.8 3 Noroeste 12 Oeste 0 -- -- 86
2021-02-04 18:00:00 12.5 9 Oeste 13 Oeste 0 -- -- 78
2021-02-04 17:00:00 13.3 8 Oeste 19 Oeste 0 -- -- 75
2021-02-04 16:00:00 14.5 10 Sudoeste 28 Sudoeste 0 -- -- 68
2021-02-04 15:00:00 15 15 Sudoeste 30 Sudoeste 0 -- -- 66
2021-02-04 14:00:00 13.6 12 Oeste 23 Oeste 0 -- -- 72
2021-02-04 13:00:00 12.1 10 Oeste 15 Oeste 0 -- -- 79
2021-02-04 12:00:00 11.5 8 Este 23 Este 0 -- -- 81
2021-02-04 11:00:00 11.4 12 Este 19 Sudeste 0 -- -- 80
2021-02-04 10:00:00 10.6 9 Sudeste 18 Este 0 -- -- 84
2021-02-04 09:00:00 8.2 10 Este 15 Este 0 -- -- 93
2021-02-04 08:00:00 8.8 8 Este 14 Este 0 -- -- 94
2021-02-04 07:00:00 9 8 Este 14 Este 0 -- -- 93
2021-02-04 06:00:00 9.1 8 Este 12 Este 0 -- -- 94
2021-02-04 05:00:00 9.2 4 Sudeste 6 Este 0 -- -- 94
2021-02-04 04:00:00 9 3 Sudeste 5 Sur 0 -- -- 96
2021-02-04 03:00:00 8.9 4 Sur 6 Sudeste 0 -- -- 96
2021-02-04 02:00:00 8.9 3 Sudoeste 8 Oeste 0 -- -- 95
2021-02-04 01:00:00 8.7 3 Sur 6 Sudoeste 0 -- -- 96
2021-02-04 00:00:00 8 3 Noroeste 12 Oeste 0 -- -- 99
2021-02-03 23:00:00 7.7 9 Noroeste 13 Oeste 0 -- -- 99
2021-02-03 22:00:00 7.6 4 Sudoeste 8 Sudoeste 0 -- -- 99
2021-02-03 21:00:00 7.4 0 Calma 5 Sudoeste 0 -- -- 98
2021-02-03 20:00:00 8.3 0 Calma 3 Oeste 0 -- -- 98
2021-02-03 19:00:00 9.8 3 Oeste 10 Oeste 0 -- -- 92
2021-02-03 18:00:00 12 5 Sudoeste 14 Oeste 0 -- -- 82
2021-02-03 17:00:00 13.3 9 Sudoeste 17 Sudoeste 0 -- -- 75
2021-02-03 16:00:00 13.1 9 Oeste 15 Sudoeste 0 -- -- 78
2021-02-03 15:00:00 13.8 7 Sudoeste 17 Oeste 0 -- -- 74
2021-02-03 14:00:00 13.3 10 Sudoeste 19 Sudoeste 0 -- -- 75
2021-02-03 13:00:00 14.6 10 Oeste 17 Oeste 0 -- -- 68
2021-02-03 12:00:00 12.6 5 Sudoeste 20 Sudoeste 0 -- -- 74
2021-02-03 11:00:00 12.5 9 Sudoeste 18 Sudoeste 0 -- -- 76
2021-02-03 10:00:00 9.5 9 Sudoeste 15 Sur 0 -- -- 86
2021-02-03 09:00:00 8.6 5 Sudoeste 13 Sur 0 -- -- 90
2021-02-03 08:00:00 8.8 10 Sudoeste 17 Sur 0 -- -- 89
2021-02-03 07:00:00 9.1 9 Sur 15 Sur 0 -- -- 89
2021-02-03 06:00:00 9 4 Sudoeste 14 Sudoeste 0 -- -- 91
2021-02-03 05:00:00 9 8 Sudoeste 13 Sudoeste 0 -- -- 91
2021-02-03 04:00:00 9 5 Sudoeste 14 Sudoeste 0 -- -- 93
2021-02-03 03:00:00 9 6 Sudoeste 14 Sudoeste 0 -- -- 93
2021-02-03 02:00:00 9.1 7 Sudoeste 15 Sudoeste 0 -- -- 93
2021-02-03 01:00:00 8.9 8 Sudoeste 12 Sur 0 -- -- 92
2021-02-03 00:00:00 8.7 4 Sur 9 Sur 0 -- -- 92
2021-02-02 23:00:00 8.9 3 Sur 10 Sur 0 -- -- 91
2021-02-02 22:00:00 9 3 Sur 11 Sur 0 -- -- 90
2021-02-02 21:00:00 9.4 3 Sur 9 Sudoeste 0 -- -- 88
2021-02-02 20:00:00 9.6 6 Sur 11 Sudoeste 0 -- -- 88
2021-02-02 19:00:00 10 7 Sur 16 Sudoeste 0 -- -- 84
2021-02-02 18:00:00 10.5 5 Sudoeste 17 Sudoeste 0 -- -- 82
2021-02-02 17:00:00 10.8 10 Sudoeste 18 Sudoeste 0 -- -- 80
2021-02-02 16:00:00 10.4 9 Sudoeste 19 Sudoeste 0 -- -- 85
2021-02-02 15:00:00 10.2 11 Sudoeste 22 Oeste 0 -- -- 88
2021-02-02 14:00:00 11.2 11 Sudoeste 21 Sur 0 -- -- 83
2021-02-02 13:00:00 11.6 9 Sudoeste 17 Sudoeste 0 -- -- 84
2021-02-02 12:00:00 10.6 6 Sudoeste 17 Sudoeste 0 -- -- 87
2021-02-02 11:00:00 9.6 6 Sur 15 Sur 0 -- -- 91
2021-02-02 10:00:00 9 7 Sur 14 Sur 0 -- -- 94
2021-02-02 09:00:00 8.3 4 Sur 9 Sur 0 -- -- 99
2021-02-02 08:00:00 8.2 5 Sur 11 Sudoeste 0 -- -- 99
2021-02-02 07:00:00 8.3 4 Sudoeste 12 Sudoeste 0 -- -- 99
2021-02-02 06:00:00 8.3 5 Sudoeste 17 Oeste 0 -- -- 98
2021-02-02 05:00:00 8.3 6 Sudoeste 17 Oeste 0 -- -- 98
2021-02-02 04:00:00 8.3 12 Sudoeste 19 Oeste 0 -- -- 97
2021-02-02 03:00:00 7.8 9 Oeste 14 Oeste 0 -- -- 98
2021-02-02 02:00:00 7.3 7 Oeste 12 Oeste 0 -- -- 99
2021-02-02 01:00:00 7.1 4 Sudoeste 12 Sudoeste 0 -- -- 99
2021-02-02 00:00:00 6.8 8 Oeste 14 Oeste 0 -- -- 98
2021-02-01 23:00:00 6.6 7 Oeste 15 Oeste 0 -- -- 97
2021-02-01 22:00:00 7.4 10 Oeste 19 Oeste 0 -- -- 95
2021-02-01 21:00:00 7.8 12 Oeste 19 Oeste 0 -- -- 94
2021-02-01 20:00:00 8.7 12 Sudoeste 23 Oeste 0 -- -- 91
2021-02-01 19:00:00 9.2 15 Oeste 31 Oeste 0 -- -- 89
2021-02-01 18:00:00 10.2 17 Sudoeste 38 Oeste 0 -- -- 87
2021-02-01 17:00:00 10.7 24 Oeste 45 Oeste 0 -- -- 85
2021-02-01 16:00:00 10.8 23 Oeste 41 Oeste 0 -- -- 84
2021-02-01 15:00:00 10.6 21 Oeste 39 Oeste 0 -- -- 85
2021-02-01 14:00:00 11 24 Oeste 40 Oeste 0 -- -- 85
2021-02-01 13:00:00 9.9 22 Oeste 36 Oeste 0 -- -- 92
2021-02-01 12:00:00 9.5 20 Oeste 36 Oeste 0 -- -- 92
2021-02-01 11:00:00 9.3 23 Oeste 36 Oeste 0 -- -- 90
2021-02-01 10:00:00 9.1 23 Oeste 36 Oeste 0 -- -- 90
2021-02-01 09:00:00 8.7 17 Oeste 30 Oeste 0 -- -- 94
2021-02-01 08:00:00 9.1 16 Sudoeste 28 Sudoeste 0 -- -- 95
2021-02-01 07:00:00 9.2 17 Oeste 27 Oeste 0 -- -- 95
2021-02-01 06:00:00 9.4 14 Oeste 38 Sudoeste 0 -- -- 93
2021-02-01 05:00:00 9.8 19 Oeste 35 Oeste 0 -- -- 91
2021-02-01 04:00:00 10 19 Oeste 34 Oeste 0 -- -- 93
2021-02-01 03:00:00 10.2 21 Oeste 40 Oeste 0 -- -- 92
2021-02-01 02:00:00 10.6 20 Oeste 37 Oeste 0 -- -- 93
2021-02-01 01:00:00 10.7 24 Oeste 41 Oeste 0 -- -- 93
2021-02-01 00:00:00 11 23 Oeste 42 Oeste 0 -- -- 95
2021-01-31 23:00:00 11.3 26 Oeste 42 Oeste 0.2 -- -- 97
2021-01-31 22:00:00 11.2 22 Oeste 35 Sudoeste 0 -- -- 100
2021-01-31 21:00:00 10.8 13 Oeste 33 Sudoeste 1.2 -- -- 100
2021-01-31 20:00:00 10.7 17 Sudoeste 33 Sudoeste 1 -- -- 100
2021-01-31 19:00:00 10.5 19 Sudoeste 37 Oeste 0.4 -- -- 100
2021-01-31 18:00:00 10.6 22 Oeste 36 Oeste 0 -- -- 100
2021-01-31 17:00:00 10.5 21 Oeste 39 Sudoeste 0 -- -- 99
2021-01-31 16:00:00 10.2 20 Oeste 41 Oeste 0 -- -- 99
2021-01-31 15:00:00 9.8 24 Oeste 46 Oeste 0 -- -- 94
2021-01-31 14:00:00 9.4 24 Oeste 40 Oeste 0 -- -- 95
2021-01-31 13:00:00 8.8 25 Oeste 38 Oeste 0 -- -- 99
2021-01-31 12:00:00 8.4 23 Oeste 39 Oeste 0 -- -- 100
2021-01-31 11:00:00 8 18 Sudoeste 36 Sudoeste 0 -- -- 99
2021-01-31 10:00:00 7.6 21 Oeste 33 Oeste 0 -- -- 98
2021-01-31 09:00:00 7 17 Oeste 35 Oeste 0 -- -- 95
2021-01-31 08:00:00 6.9 17 Oeste 39 Oeste 0 -- -- 92
2021-01-31 07:00:00 6.8 26 Oeste 40 Oeste 0 -- -- 91
2021-01-31 06:00:00 6.8 18 Oeste 39 Oeste 0 -- -- 90
2021-01-31 05:00:00 6.8 18 Oeste 35 Oeste 0 -- -- 89
2021-01-31 04:00:00 6.8 17 Oeste 39 Oeste 0 -- -- 90
2021-01-31 03:00:00 7 26 Oeste 48 Oeste 0 -- -- 88
2021-01-31 02:00:00 7.3 23 Oeste 51 Oeste 0 -- -- 86
2021-01-31 01:00:00 7.3 24 Oeste 43 Oeste 0 -- -- 88
2021-01-31 00:00:00 7.6 18 Oeste 39 Oeste 0 -- -- 86